sensor_id;sensor_type;location;lat;lon;timestamp;pressure;altitude;pressure_sealevel;temperature;humidity
66164;BME280;52962;51.088;3.096;2023-04-02T00:01:24;100970.59;;;9.88;100.00
66164;BME280;52962;51.088;3.096;2023-04-02T00:04:11;100974.16;;;9.90;100.00
66164;BME280;52962;51.088;3.096;2023-04-02T00:06:42;100972.22;;;9.82;100.00
66164;BME280;52962;51.088;3.096;2023-04-02T00:09:25;100984.59;;;9.87;100.00
66164;BME280;52962;51.088;3.096;2023-04-02T00:11:57;100991.56;;;9.84;100.00
66164;BME280;52962;51.088;3.096;2023-04-02T00:14:30;100999.56;;;9.89;100.00
66164;BME280;52962;51.088;3.096;2023-04-02T00:17:01;100999.41;;;9.83;100.00
66164;BME280;52962;51.088;3.096;2023-04-02T00:19:34;101001.03;;;9.78;100.00
66164;BME280;52962;51.088;3.096;2023-04-02T00:22:05;101004.72;;;9.84;100.00
66164;BME280;52962;51.088;3.096;2023-04-02T00:24:36;101009.19;;;9.89;100.00
66164;BME280;52962;51.088;3.096;2023-04-02T00:27:09;101006.22;;;9.75;100.00
66164;BME280;52962;51.088;3.096;2023-04-02T00:29:44;101005.47;;;9.80;100.00
66164;BME280;52962;51.088;3.096;2023-04-02T00:32:17;101014.13;;;9.76;100.00
66164;BME280;52962;51.088;3.096;2023-04-02T00:34:47;101015.16;;;9.81;100.00
66164;BME280;52962;51.088;3.096;2023-04-02T00:37:18;101009.88;;;9.81;100.00
66164;BME280;52962;51.088;3.096;2023-04-02T00:39:54;101014.97;;;9.75;100.00
66164;BME280;52962;51.088;3.096;2023-04-02T00:42:27;101022.16;;;9.81;100.00
66164;BME280;52962;51.088;3.096;2023-04-02T00:44:56;101021.19;;;9.77;100.00
66164;BME280;52962;51.088;3.096;2023-04-02T00:47:25;101022.97;;;9.78;100.00
66164;BME280;52962;51.088;3.096;2023-04-02T00:49:58;101029.97;;;9.78;100.00
66164;BME280;52962;51.088;3.096;2023-04-02T00:52:30;101031.69;;;9.77;100.00
66164;BME280;52962;51.088;3.096;2023-04-02T00:55:04;101027.16;;;9.72;100.00
66164;BME280;52962;51.088;3.096;2023-04-02T00:57:35;101043.84;;;9.72;100.00
66164;BME280;52962;51.088;3.096;2023-04-02T01:00:18;101042.81;;;9.67;100.00
66164;BME280;52962;51.088;3.096;2023-04-02T01:05:58;101049.59;;;9.59;100.00
66164;BME280;52962;51.088;3.096;2023-04-02T01:08:51;101054.94;;;9.62;100.00
66164;BME280;52962;51.088;3.096;2023-04-02T01:11:34;101066.56;;;9.70;100.00
66164;BME280;52962;51.088;3.096;2023-04-02T01:14:13;101075.44;;;9.74;100.00
66164;BME280;52962;51.088;3.096;2023-04-02T01:16:49;101073.69;;;9.74;100.00
66164;BME280;52962;51.088;3.096;2023-04-02T01:19:47;101068.34;;;9.71;100.00
66164;BME280;52962;51.088;3.096;2023-04-02T01:22:27;101068.94;;;9.61;100.00
66164;BME280;52962;51.088;3.096;2023-04-02T01:25:02;101080.41;;;9.63;100.00
66164;BME280;52962;51.088;3.096;2023-04-02T01:27:37;101076.97;;;9.66;100.00
66164;BME280;52962;51.088;3.096;2023-04-02T01:30:10;101071.56;;;9.61;100.00
66164;BME280;52962;51.088;3.096;2023-04-02T01:32:41;101088.38;;;9.66;100.00
66164;BME280;52962;51.088;3.096;2023-04-02T01:35:10;101087.38;;;9.63;100.00
66164;BME280;52962;51.088;3.096;2023-04-02T01:37:42;101090.03;;;9.63;100.00
66164;BME280;52962;51.088;3.096;2023-04-02T01:40:28;101097.16;;;9.67;100.00
66164;BME280;52962;51.088;3.096;2023-04-02T01:43:03;101098.94;;;9.68;100.00
66164;BME280;52962;51.088;3.096;2023-04-02T01:45:37;101099.88;;;9.70;100.00
66164;BME280;52962;51.088;3.096;2023-04-02T01:48:13;101107.63;;;9.65;100.00
66164;BME280;52962;51.088;3.096;2023-04-02T01:50:44;101106.25;;;9.48;100.00
66164;BME280;52962;51.088;3.096;2023-04-02T01:53:15;101110.09;;;9.59;100.00
66164;BME280;52962;51.088;3.096;2023-04-02T01:55:47;101116.31;;;9.63;100.00
66164;BME280;52962;51.088;3.096;2023-04-02T01:58:18;101119.75;;;9.60;100.00
66164;BME280;52962;51.088;3.096;2023-04-02T02:00:50;101128.66;;;9.65;100.00
66164;BME280;52962;51.088;3.096;2023-04-02T02:03:21;101126.34;;;9.76;100.00
66164;BME280;52962;51.088;3.096;2023-04-02T02:05:50;101124.59;;;9.76;100.00
66164;BME280;52962;51.088;3.096;2023-04-02T02:08:40;101134.13;;;9.73;100.00
66164;BME280;52962;51.088;3.096;2023-04-02T02:11:15;101139.41;;;9.73;100.00
66164;BME280;52962;51.088;3.096;2023-04-02T02:13:47;101142.88;;;9.72;100.00
66164;BME280;52962;51.088;3.096;2023-04-02T02:16:19;101147.34;;;9.74;100.00
66164;BME280;52962;51.088;3.096;2023-04-02T02:18:50;101148.03;;;9.69;100.00
66164;BME280;52962;51.088;3.096;2023-04-02T02:21:27;101151.53;;;9.68;100.00
66164;BME280;52962;51.088;3.096;2023-04-02T02:23:57;101159.59;;;9.74;100.00
66164;BME280;52962;51.088;3.096;2023-04-02T02:26:27;101167.44;;;9.72;100.00
66164;BME280;52962;51.088;3.096;2023-04-02T02:28:58;101159.50;;;9.71;100.00
66164;BME280;52962;51.088;3.096;2023-04-02T02:31:30;101170.78;;;9.67;100.00
66164;BME280;52962;51.088;3.096;2023-04-02T02:34:04;101177.06;;;9.72;100.00
66164;BME280;52962;51.088;3.096;2023-04-02T02:36:38;101173.63;;;9.74;100.00
66164;BME280;52962;51.088;3.096;2023-04-02T02:39:14;101185.97;;;9.77;100.00
66164;BME280;52962;51.088;3.096;2023-04-02T02:41:50;101191.19;;;9.75;100.00
66164;BME280;52962;51.088;3.096;2023-04-02T02:44:21;101193.25;;;9.86;100.00
66164;BME280;52962;51.088;3.096;2023-04-02T02:46:55;101193.34;;;9.89;100.00
66164;BME280;52962;51.088;3.096;2023-04-02T02:49:29;101196.81;;;9.88;100.00
66164;BME280;52962;51.088;3.096;2023-04-02T02:52:08;101204.72;;;9.88;100.00
66164;BME280;52962;51.088;3.096;2023-04-02T02:55:02;101203.06;;;9.91;100.00
66164;BME280;52962;51.088;3.096;2023-04-02T02:58:01;101201.34;;;9.93;100.00
66164;BME280;52962;51.088;3.096;2023-04-02T03:00:41;101218.06;;;9.95;100.00
66164;BME280;52962;51.088;3.096;2023-04-02T03:03:15;101220.72;;;9.95;100.00
66164;BME280;52962;51.088;3.096;2023-04-02T03:05:51;101225.88;;;9.92;100.00
66164;BME280;52962;51.088;3.096;2023-04-02T03:08:25;101223.47;;;10.00;100.00
66164;BME280;52962;51.088;3.096;2023-04-02T03:11:01;101234.81;;;9.97;100.00
66164;BME280;52962;51.088;3.096;2023-04-02T03:13:33;101230.97;;;9.86;100.00
66164;BME280;52962;51.088;3.096;2023-04-02T03:16:08;101243.19;;;9.84;100.00
66164;BME280;52962;51.088;3.096;2023-04-02T03:18:45;101239.53;;;9.79;100.00
66164;BME280;52962;51.088;3.096;2023-04-02T03:21:24;101250.13;;;9.82;100.00
66164;BME280;52962;51.088;3.096;2023-04-02T03:23:58;101259.66;;;9.78;100.00
66164;BME280;52962;51.088;3.096;2023-04-02T03:26:32;101259.94;;;9.88;100.00
66164;BME280;52962;51.088;3.096;2023-04-02T03:29:07;101261.72;;;9.89;100.00
66164;BME280;52962;51.088;3.096;2023-04-02T03:31:43;101267.84;;;9.88;100.00
66164;BME280;52962;51.088;3.096;2023-04-02T03:34:19;101273.19;;;9.91;100.00
66164;BME280;52962;51.088;3.096;2023-04-02T03:36:57;101273.00;;;9.84;100.00
66164;BME280;52962;51.088;3.096;2023-04-02T03:39:32;101273.75;;;9.80;100.00
66164;BME280;52962;51.088;3.096;2023-04-02T03:42:06;101281.00;;;9.88;100.00
66164;BME280;52962;51.088;3.096;2023-04-02T03:44:41;101287.91;;;9.84;100.00
66164;BME280;52962;51.088;3.096;2023-04-02T03:47:15;101295.88;;;9.87;100.00
66164;BME280;52962;51.088;3.096;2023-04-02T03:49:51;101297.06;;;9.97;100.00
66164;BME280;52962;51.088;3.096;2023-04-02T03:52:25;101301.56;;;10.01;100.00
66164;BME280;52962;51.088;3.096;2023-04-02T03:54:57;101305.41;;;9.83;100.00
66164;BME280;52962;51.088;3.096;2023-04-02T03:57:30;101308.91;;;9.82;100.00
66164;BME280;52962;51.088;3.096;2023-04-02T04:00:05;101325.34;;;9.75;100.00
66164;BME280;52962;51.088;3.096;2023-04-02T04:02:43;101324.50;;;9.76;100.00
66164;BME280;52962;51.088;3.096;2023-04-02T04:05:21;101337.69;;;9.78;100.00
66164;BME280;52962;51.088;3.096;2023-04-02T04:07:56;101330.63;;;9.77;100.00
66164;BME280;52962;51.088;3.096;2023-04-02T04:10:28;101348.50;;;9.60;100.00
66164;BME280;52962;51.088;3.096;2023-04-02T04:13:01;101348.72;;;9.66;100.00
66164;BME280;52962;51.088;3.096;2023-04-02T04:15:35;101351.25;;;9.63;100.00
66164;BME280;52962;51.088;3.096;2023-04-02T04:18:10;101361.81;;;9.65;100.00
66164;BME280;52962;51.088;3.096;2023-04-02T04:20:50;101360.72;;;9.58;100.00
66164;BME280;52962;51.088;3.096;2023-04-02T04:23:29;101362.94;;;9.46;100.00
66164;BME280;52962;51.088;3.096;2023-04-02T04:26:04;101369.25;;;9.51;100.00
66164;BME280;52962;51.088;3.096;2023-04-02T04:28:42;101373.56;;;9.49;100.00
66164;BME280;52962;51.088;3.096;2023-04-02T04:31:18;101380.25;;;9.39;100.00
66164;BME280;52962;51.088;3.096;2023-04-02T04:33:54;101366.25;;;9.40;100.00
66164;BME280;52962;51.088;3.096;2023-04-02T04:36:35;101379.47;;;9.42;100.00
66164;BME280;52962;51.088;3.096;2023-04-02T04:39:15;101388.50;;;9.50;100.00
66164;BME280;52962;51.088;3.096;2023-04-02T04:41:49;101386.81;;;9.52;100.00
66164;BME280;52962;51.088;3.096;2023-04-02T04:44:22;101399.00;;;9.50;100.00
66164;BME280;52962;51.088;3.096;2023-04-02T04:46:58;101398.13;;;9.49;100.00
66164;BME280;52962;51.088;3.096;2023-04-02T04:49:32;101401.53;;;9.47;100.00
66164;BME280;52962;51.088;3.096;2023-04-02T04:52:08;101401.22;;;9.38;100.00
66164;BME280;52962;51.088;3.096;2023-04-02T04:54:39;101406.59;;;9.41;100.00
66164;BME280;52962;51.088;3.096;2023-04-02T04:57:21;101424.09;;;9.40;100.00
66164;BME280;52962;51.088;3.096;2023-04-02T04:59:57;101417.03;;;9.39;100.00
66164;BME280;52962;51.088;3.096;2023-04-02T05:02:38;101417.22;;;9.44;100.00
66164;BME280;52962;51.088;3.096;2023-04-02T05:05:16;101434.03;;;9.49;100.00
66164;BME280;52962;51.088;3.096;2023-04-02T05:07:50;101437.00;;;9.33;100.00
66164;BME280;52962;51.088;3.096;2023-04-02T05:10:29;101440.75;;;9.41;100.00
66164;BME280;52962;51.088;3.096;2023-04-02T05:13:04;101452.88;;;9.36;100.00
66164;BME280;52962;51.088;3.096;2023-04-02T05:15:40;101448.84;;;9.47;100.00
66164;BME280;52962;51.088;3.096;2023-04-02T05:18:18;101457.59;;;9.46;100.00
66164;BME280;52962;51.088;3.096;2023-04-02T05:20:51;101468.16;;;9.47;100.00
66164;BME280;52962;51.088;3.096;2023-04-02T05:23:26;101465.25;;;9.40;100.00
66164;BME280;52962;51.088;3.096;2023-04-02T05:26:02;101481.88;;;9.39;100.00
66164;BME280;52962;51.088;3.096;2023-04-02T05:28:39;101475.59;;;9.34;100.00
66164;BME280;52962;51.088;3.096;2023-04-02T05:31:14;101475.59;;;9.34;100.00
66164;BME280;52962;51.088;3.096;2023-04-02T05:33:48;101475.66;;;9.37;100.00
66164;BME280;52962;51.088;3.096;2023-04-02T05:36:19;101486.84;;;9.30;100.00
66164;BME280;52962;51.088;3.096;2023-04-02T05:38:54;101493.16;;;9.35;100.00
66164;BME280;52962;51.088;3.096;2023-04-02T05:41:45;101490.91;;;9.22;100.00
66164;BME280;52962;51.088;3.096;2023-04-02T05:44:27;101489.47;;;9.30;100.00
66164;BME280;52962;51.088;3.096;2023-04-02T05:47:01;101510.59;;;9.33;100.00
66164;BME280;52962;51.088;3.096;2023-04-02T05:49:37;101501.88;;;9.34;100.00
66164;BME280;52962;51.088;3.096;2023-04-02T05:52:12;101504.56;;;9.35;100.00
66164;BME280;52962;51.088;3.096;2023-04-02T05:54:49;101503.56;;;9.32;100.00
66164;BME280;52962;51.088;3.096;2023-04-02T05:57:21;101512.28;;;9.31;100.00
66164;BME280;52962;51.088;3.096;2023-04-02T06:00:15;101511.44;;;9.32;100.00
66164;BME280;52962;51.088;3.096;2023-04-02T06:02:52;101516.66;;;9.30;100.00
66164;BME280;52962;51.088;3.096;2023-04-02T06:05:31;101522.69;;;9.28;100.00
66164;BME280;52962;51.088;3.096;2023-04-02T06:08:04;101529.13;;;9.36;100.00
66164;BME280;52962;51.088;3.096;2023-04-02T06:10:41;101529.00;;;9.33;100.00
66164;BME280;52962;51.088;3.096;2023-04-02T06:13:16;101531.53;;;9.30;100.00
66164;BME280;52962;51.088;3.096;2023-04-02T06:15:45;101542.94;;;9.30;100.00
66164;BME280;52962;51.088;3.096;2023-04-02T06:18:24;101540.97;;;9.25;100.00
66164;BME280;52962;51.088;3.096;2023-04-02T06:20:53;101550.16;;;9.37;100.00
66164;BME280;52962;51.088;3.096;2023-04-02T06:23:24;101553.63;;;9.35;100.00
66164;BME280;52962;51.088;3.096;2023-04-02T06:26:04;101552.00;;;9.40;100.00
66164;BME280;52962;51.088;3.096;2023-04-02T06:28:39;101567.06;;;9.44;100.00
66164;BME280;52962;51.088;3.096;2023-04-02T06:31:13;101568.13;;;9.49;100.00
66164;BME280;52962;51.088;3.096;2023-04-02T06:33:46;101570.97;;;9.55;100.00
66164;BME280;52962;51.088;3.096;2023-04-02T06:36:20;101569.06;;;9.51;100.00
66164;BME280;52962;51.088;3.096;2023-04-02T06:38:49;101582.94;;;9.47;100.00
66164;BME280;52962;51.088;3.096;2023-04-02T06:41:20;101581.09;;;9.44;100.00
66164;BME280;52962;51.088;3.096;2023-04-02T06:44:13;101588.09;;;9.44;100.00
66164;BME280;52962;51.088;3.096;2023-04-02T06:47:16;101591.31;;;9.35;100.00
66164;BME280;52962;51.088;3.096;2023-04-02T06:49:53;101598.50;;;9.41;100.00
66164;BME280;52962;51.088;3.096;2023-04-02T06:52:26;101602.78;;;9.39;100.00
66164;BME280;52962;51.088;3.096;2023-04-02T06:54:56;101601.81;;;9.35;100.00
66164;BME280;52962;51.088;3.096;2023-04-02T06:57:26;101607.34;;;9.43;100.00
66164;BME280;52962;51.088;3.096;2023-04-02T06:59:54;101608.13;;;9.40;100.00
66164;BME280;52962;51.088;3.096;2023-04-02T07:02:28;101615.28;;;9.44;100.00
66164;BME280;52962;51.088;3.096;2023-04-02T07:05:01;101620.59;;;9.46;100.00
66164;BME280;52962;51.088;3.096;2023-04-02T07:07:33;101624.97;;;9.45;100.00
66164;BME280;52962;51.088;3.096;2023-04-02T07:10:05;101627.75;;;9.50;100.00
66164;BME280;52962;51.088;3.096;2023-04-02T07:12:36;101635.03;;;9.57;100.00
66164;BME280;52962;51.088;3.096;2023-04-02T07:15:06;101646.50;;;9.59;100.00
66164;BME280;52962;51.088;3.096;2023-04-02T07:17:34;101636.59;;;9.52;100.00
66164;BME280;52962;51.088;3.096;2023-04-02T07:20:23;101646.09;;;9.48;100.00
66164;BME280;52962;51.088;3.096;2023-04-02T07:22:53;101646.94;;;9.47;100.00
66164;BME280;52962;51.088;3.096;2023-04-02T07:25:22;101658.41;;;9.49;100.00
66164;BME280;52962;51.088;3.096;2023-04-02T07:27:52;101666.84;;;9.41;100.00
66164;BME280;52962;51.088;3.096;2023-04-02T07:30:21;101663.84;;;9.54;100.00
66164;BME280;52962;51.088;3.096;2023-04-02T07:32:49;101670.91;;;9.55;100.00
66164;BME280;52962;51.088;3.096;2023-04-02T07:35:18;101688.34;;;9.53;100.00
66164;BME280;52962;51.088;3.096;2023-04-02T07:37:46;101693.00;;;9.60;100.00
66164;BME280;52962;51.088;3.096;2023-04-02T07:40:16;101697.72;;;9.93;100.00
66164;BME280;52962;51.088;3.096;2023-04-02T07:42:45;101704.06;;;9.98;100.00
66164;BME280;52962;51.088;3.096;2023-04-02T07:45:15;101706.28;;;10.11;100.00
66164;BME280;52962;51.088;3.096;2023-04-02T07:47:43;101712.78;;;9.97;100.00
66164;BME280;52962;51.088;3.096;2023-04-02T07:50:12;101714.53;;;9.96;100.00
66164;BME280;52962;51.088;3.096;2023-04-02T07:52:40;101718.81;;;9.94;100.00
66164;BME280;52962;51.088;3.096;2023-04-02T07:55:09;101723.19;;;9.94;100.00
66164;BME280;52962;51.088;3.096;2023-04-02T07:57:38;101722.84;;;9.84;100.00
66164;BME280;52962;51.088;3.096;2023-04-02T08:00:11;101719.22;;;9.81;100.00
66164;BME280;52962;51.088;3.096;2023-04-02T08:02:41;101727.72;;;9.74;100.00
66164;BME280;52962;51.088;3.096;2023-04-02T08:05:09;101734.75;;;9.75;100.00
66164;BME280;52962;51.088;3.096;2023-04-02T08:07:38;101733.81;;;9.73;100.00
66164;BME280;52962;51.088;3.096;2023-04-02T08:10:09;101729.16;;;9.66;100.00
66164;BME280;52962;51.088;3.096;2023-04-02T08:12:38;101740.31;;;9.82;100.00
66164;BME280;52962;51.088;3.096;2023-04-02T08:15:08;101749.16;;;9.84;100.00
66164;BME280;52962;51.088;3.096;2023-04-02T08:17:37;101751.19;;;9.92;100.00
66164;BME280;52962;51.088;3.096;2023-04-02T08:20:10;101761.72;;;9.92;100.00
66164;BME280;52962;51.088;3.096;2023-04-02T08:22:41;101766.44;;;10.00;100.00
66164;BME280;52962;51.088;3.096;2023-04-02T08:25:09;101772.41;;;9.96;100.00
66164;BME280;52962;51.088;3.096;2023-04-02T08:27:37;101766.03;;;9.90;100.00
66164;BME280;52962;51.088;3.096;2023-04-02T08:30:07;101772.34;;;9.95;100.00
66164;BME280;52962;51.088;3.096;2023-04-02T08:32:36;101780.31;;;9.96;100.00
66164;BME280;52962;51.088;3.096;2023-04-02T08:35:09;101775.75;;;9.92;100.00
66164;BME280;52962;51.088;3.096;2023-04-02T08:37:38;101787.47;;;10.00;100.00
66164;BME280;52962;51.088;3.096;2023-04-02T08:40:07;101786.41;;;9.73;100.00
66164;BME280;52962;51.088;3.096;2023-04-02T08:42:46;101781.69;;;9.87;100.00
66164;BME280;52962;51.088;3.096;2023-04-02T08:45:19;101791.91;;;9.79;100.00
66164;BME280;52962;51.088;3.096;2023-04-02T08:47:52;101786.06;;;9.64;100.00
66164;BME280;52962;51.088;3.096;2023-04-02T08:50:28;101799.81;;;9.79;100.00
66164;BME280;52962;51.088;3.096;2023-04-02T08:52:57;101802.03;;;9.91;100.00
66164;BME280;52962;51.088;3.096;2023-04-02T08:55:33;101807.50;;;9.97;100.00
66164;BME280;52962;51.088;3.096;2023-04-02T08:58:09;101808.19;;;9.91;100.00
66164;BME280;52962;51.088;3.096;2023-04-02T09:00:42;101816.13;;;9.93;100.00
66164;BME280;52962;51.088;3.096;2023-04-02T09:03:15;101826.53;;;9.90;100.00
66164;BME280;52962;51.088;3.096;2023-04-02T09:05:46;101824.13;;;9.96;100.00
66164;BME280;52962;51.088;3.096;2023-04-02T09:08:18;101833.09;;;10.01;100.00
66164;BME280;52962;51.088;3.096;2023-04-02T09:10:50;101844.72;;;10.06;100.00
66164;BME280;52962;51.088;3.096;2023-04-02T09:13:23;101840.41;;;10.08;100.00
66164;BME280;52962;51.088;3.096;2023-04-02T09:15:56;101847.28;;;10.04;100.00
66164;BME280;52962;51.088;3.096;2023-04-02T09:18:29;101863.72;;;9.99;100.00
66164;BME280;52962;51.088;3.096;2023-04-02T09:21:03;101856.56;;;9.95;100.00
66164;BME280;52962;51.088;3.096;2023-04-02T09:23:43;101859.44;;;10.01;100.00
66164;BME280;52962;51.088;3.096;2023-04-02T09:26:19;101864.97;;;9.86;100.00
66164;BME280;52962;51.088;3.096;2023-04-02T09:28:49;101870.06;;;9.81;100.00
66164;BME280;52962;51.088;3.096;2023-04-02T09:31:21;101868.28;;;9.80;100.00
66164;BME280;52962;51.088;3.096;2023-04-02T09:33:53;101875.72;;;9.70;100.00
66164;BME280;52962;51.088;3.096;2023-04-02T09:36:32;101869.75;;;9.74;100.00
66164;BME280;52962;51.088;3.096;2023-04-02T09:39:04;101882.25;;;9.79;100.00
66164;BME280;52962;51.088;3.096;2023-04-02T09:41:34;101889.44;;;9.83;100.00
66164;BME280;52962;51.088;3.096;2023-04-02T09:44:18;101898.16;;;9.82;100.00
66164;BME280;52962;51.088;3.096;2023-04-02T09:46:52;101893.03;;;9.86;100.00
66164;BME280;52962;51.088;3.096;2023-04-02T09:49:25;101896.97;;;9.97;100.00
66164;BME280;52962;51.088;3.096;2023-04-02T09:52:25;101907.03;;;10.07;100.00
66164;BME280;52962;51.088;3.096;2023-04-02T09:55:16;101896.19;;;10.20;100.00
66164;BME280;52962;51.088;3.096;2023-04-02T09:57:46;101904.88;;;10.19;100.00
66164;BME280;52962;51.088;3.096;2023-04-02T10:00:18;101914.34;;;10.14;100.00
66164;BME280;52962;51.088;3.096;2023-04-02T10:03:20;101918.31;;;10.25;100.00
66164;BME280;52962;51.088;3.096;2023-04-02T10:06:04;101914.78;;;10.25;100.00
66164;BME280;52962;51.088;3.096;2023-04-02T10:08:35;101930.03;;;10.33;100.00
66164;BME280;52962;51.088;3.096;2023-04-02T10:11:08;101931.06;;;10.37;100.00
66164;BME280;52962;51.088;3.096;2023-04-02T10:13:45;101931.06;;;10.37;100.00
66164;BME280;52962;51.088;3.096;2023-04-02T10:16:19;101939.78;;;10.36;100.00
66164;BME280;52962;51.088;3.096;2023-04-02T10:18:56;101938.91;;;10.35;100.00
66164;BME280;52962;51.088;3.096;2023-04-02T10:21:26;101939.03;;;10.38;100.00
66164;BME280;52962;51.088;3.096;2023-04-02T10:23:57;101945.72;;;10.30;100.00
66164;BME280;52962;51.088;3.096;2023-04-02T10:26:40;101942.03;;;10.49;100.00
66164;BME280;52962;51.088;3.096;2023-04-02T10:29:25;101946.38;;;10.71;100.00
66164;BME280;52962;51.088;3.096;2023-04-02T10:32:01;101944.75;;;10.98;100.00
66164;BME280;52962;51.088;3.096;2023-04-02T10:34:35;101952.09;;;11.07;100.00
66164;BME280;52962;51.088;3.096;2023-04-02T10:37:32;101964.09;;;10.99;100.00
66164;BME280;52962;51.088;3.096;2023-04-02T10:40:09;101953.44;;;10.96;100.00
66164;BME280;52962;51.088;3.096;2023-04-02T10:42:43;101958.09;;;11.03;100.00
66164;BME280;52962;51.088;3.096;2023-04-02T10:45:20;101957.81;;;10.95;100.00
66164;BME280;52962;51.088;3.096;2023-04-02T10:47:55;101972.56;;;10.90;100.00
66164;BME280;52962;51.088;3.096;2023-04-02T10:50:30;101984.44;;;10.79;100.00
66164;BME280;52962;51.088;3.096;2023-04-02T10:53:10;101986.13;;;10.77;100.00
66164;BME280;52962;51.088;3.096;2023-04-02T10:55:43;101990.38;;;10.73;100.00
66164;BME280;52962;51.088;3.096;2023-04-02T10:58:19;101992.72;;;10.66;100.00
66164;BME280;52962;51.088;3.096;2023-04-02T11:00:51;101994.81;;;10.74;100.00
66164;BME280;52962;51.088;3.096;2023-04-02T11:03:28;101996.97;;;10.62;100.00
66164;BME280;52962;51.088;3.096;2023-04-02T11:06:01;101997.88;;;10.63;100.00
66164;BME280;52962;51.088;3.096;2023-04-02T11:08:38;102000.50;;;10.63;100.00
66164;BME280;52962;51.088;3.096;2023-04-02T11:11:12;102003.97;;;10.62;100.00
66164;BME280;52962;51.088;3.096;2023-04-02T11:13:49;102018.72;;;10.57;100.00
66164;BME280;52962;51.088;3.096;2023-04-02T11:16:19;102017.75;;;10.55;100.00
66164;BME280;52962;51.088;3.096;2023-04-02T11:19:22;102017.78;;;10.32;100.00
66164;BME280;52962;51.088;3.096;2023-04-02T11:21:52;102032.47;;;10.49;100.00
66164;BME280;52962;51.088;3.096;2023-04-02T11:24:35;102030.94;;;10.32;100.00
66164;BME280;52962;51.088;3.096;2023-04-02T11:27:12;102036.19;;;10.32;100.00
66164;BME280;52962;51.088;3.096;2023-04-02T11:29:44;102037.38;;;10.40;100.00
66164;BME280;52962;51.088;3.096;2023-04-02T11:32:25;102044.47;;;10.64;100.00
66164;BME280;52962;51.088;3.096;2023-04-02T11:37:53;102062.06;;;10.65;100.00
66164;BME280;52962;51.088;3.096;2023-04-02T11:40:48;102061.09;;;10.63;100.00
66164;BME280;52962;51.088;3.096;2023-04-02T11:46:43;102068.53;;;10.73;100.00
66164;BME280;52962;51.088;3.096;2023-04-02T11:49:38;102071.34;;;10.77;100.00
66164;BME280;52962;51.088;3.096;2023-04-02T11:52:22;102066.13;;;10.79;100.00
66164;BME280;52962;51.088;3.096;2023-04-02T11:54:59;102070.25;;;10.95;100.00
66164;BME280;52962;51.088;3.096;2023-04-02T11:57:49;102072.59;;;10.87;100.00
66164;BME280;52962;51.088;3.096;2023-04-02T12:00:48;102088.94;;;11.01;100.00
66164;BME280;52962;51.088;3.096;2023-04-02T12:03:40;102088.28;;;10.84;100.00
66164;BME280;52962;51.088;3.096;2023-04-02T12:06:17;102095.97;;;10.78;100.00
66164;BME280;52962;51.088;3.096;2023-04-02T12:08:51;102103.50;;;10.91;100.00
66164;BME280;52962;51.088;3.096;2023-04-02T12:11:32;102095.06;;;10.77;100.00
66164;BME280;52962;51.088;3.096;2023-04-02T12:14:01;102103.25;;;10.85;100.00
66164;BME280;52962;51.088;3.096;2023-04-02T12:16:34;102105.19;;;10.89;100.00
66164;BME280;52962;51.088;3.096;2023-04-02T12:19:07;102105.66;;;10.79;100.00
66164;BME280;52962;51.088;3.096;2023-04-02T12:21:36;102101.56;;;10.65;100.00
66164;BME280;52962;51.088;3.096;2023-04-02T12:24:05;102112.06;;;10.63;100.00
66164;BME280;52962;51.088;3.096;2023-04-02T12:26:41;102118.16;;;10.62;100.00
66164;BME280;52962;51.088;3.096;2023-04-02T12:29:22;102116.94;;;10.54;100.00
66164;BME280;52962;51.088;3.096;2023-04-02T12:31:52;102126.84;;;10.60;100.00
66164;BME280;52962;51.088;3.096;2023-04-02T12:34:23;102127.91;;;10.65;100.00
66164;BME280;52962;51.088;3.096;2023-04-02T12:36:55;102134.09;;;10.65;100.00
66164;BME280;52962;51.088;3.096;2023-04-02T12:39:25;102136.38;;;10.78;100.00
66164;BME280;52962;51.088;3.096;2023-04-02T12:41:55;102132.13;;;10.82;100.00
66164;BME280;52962;51.088;3.096;2023-04-02T12:44:25;102142.31;;;10.73;100.00
66164;BME280;52962;51.088;3.096;2023-04-02T12:46:54;102146.78;;;10.75;100.00
66164;BME280;52962;51.088;3.096;2023-04-02T12:49:35;102147.75;;;10.77;100.00
66164;BME280;52962;51.088;3.096;2023-04-02T12:52:07;102156.69;;;10.81;100.00
66164;BME280;52962;51.088;3.096;2023-04-02T12:54:45;102160.28;;;10.83;100.00
66164;BME280;52962;51.088;3.096;2023-04-02T12:57:37;102161.84;;;10.78;100.00
66164;BME280;52962;51.088;3.096;2023-04-02T13:00:31;102160.16;;;10.80;100.00
66164;BME280;52962;51.088;3.096;2023-04-02T13:03:17;102173.34;;;10.80;100.00
66164;BME280;52962;51.088;3.096;2023-04-02T13:05:52;102164.13;;;10.91;100.00
66164;BME280;52962;51.088;3.096;2023-04-02T13:08:23;102166.41;;;11.04;100.00
66164;BME280;52962;51.088;3.096;2023-04-02T13:10:54;102171.94;;;11.10;100.00
66164;BME280;52962;51.088;3.096;2023-04-02T13:13:26;102169.88;;;11.03;100.00
66164;BME280;52962;51.088;3.096;2023-04-02T13:16:04;102176.53;;;11.16;100.00
66164;BME280;52962;51.088;3.096;2023-04-02T13:18:34;102179.25;;;11.18;100.00
66164;BME280;52962;51.088;3.096;2023-04-02T13:21:05;102171.09;;;11.11;100.00
66164;BME280;52962;51.088;3.096;2023-04-02T13:23:35;102176.66;;;10.97;100.00
66164;BME280;52962;51.088;3.096;2023-04-02T13:26:14;102175.09;;;11.02;100.00
66164;BME280;52962;51.088;3.096;2023-04-02T13:28:55;102174.75;;;11.15;100.00
66164;BME280;52962;51.088;3.096;2023-04-02T13:31:23;102184.44;;;11.16;100.00
66164;BME280;52962;51.088;3.096;2023-04-02T13:33:51;102192.06;;;11.08;100.00
66164;BME280;52962;51.088;3.096;2023-04-02T13:36:21;102182.94;;;11.23;100.00
66164;BME280;52962;51.088;3.096;2023-04-02T13:38:49;102189.66;;;11.14;100.00